Time;durP1;ratioP1;P1;durP2;ratioP2;P2;SDS_P1;SDS_P2;PMS_P1;PMS_P2;Temp;Humidity;BMP_temperature;BMP_pressure;BME280_temperature;BME280_humidity;BME280_pressure;Samples;Min_cycle;Max_cycle;Signal;HPM_P1;HPM_P2
2023/12/18 00:01:13;;;;;;;20.33;13.32;;;5.20;99.90;;;;;;5033119;28;20638;-75
2023/12/18 00:03:38;;;;;;;22.85;14.00;;;5.10;99.90;;;;;;5035126;28;20391;-74
2023/12/18 00:06:04;;;;;;;23.30;13.40;;;5.00;99.90;;;;;;5034318;28;20395;-74
2023/12/18 00:08:30;;;;;;;19.30;14.05;;;5.10;99.90;;;;;;5032647;28;20397;-76
2023/12/18 00:10:55;;;;;;;24.17;14.70;;;5.00;99.90;;;;;;5032655;28;20762;-73
2023/12/18 00:13:21;;;;;;;22.00;13.60;;;5.00;99.90;;;;;;5032917;28;20908;-74
2023/12/18 00:15:46;;;;;;;21.10;13.07;;;5.00;99.90;;;;;;5034212;28;20515;-74
2023/12/18 00:18:12;;;;;;;20.93;13.83;;;5.00;99.90;;;;;;5034481;28;20386;-74
2023/12/18 00:20:37;;;;;;;22.00;14.00;;;4.90;99.90;;;;;;5033981;28;20731;-74
2023/12/18 00:23:03;;;;;;;19.27;12.50;;;4.80;99.90;;;;;;5035669;28;20390;-74
2023/12/18 00:25:29;;;;;;;20.87;12.20;;;4.90;99.90;;;;;;5045651;28;20444;-75
2023/12/18 00:27:55;;;;;;;23.70;14.03;;;4.90;99.90;;;;;;5045622;28;20441;-75
2023/12/18 00:30:20;;;;;;;24.88;13.70;;;4.80;99.90;;;;;;5043545;28;20422;-75
2023/12/18 00:32:46;;;;;;;19.10;12.55;;;4.70;99.90;;;;;;5034502;28;20379;-73
2023/12/18 00:35:12;;;;;;;23.35;13.57;;;4.70;99.90;;;;;;5032890;28;20426;-76
2023/12/18 00:37:37;;;;;;;21.02;13.70;;;4.80;99.90;;;;;;5039645;28;20387;-73
2023/12/18 00:40:03;;;;;;;23.07;13.70;;;4.80;99.90;;;;;;5032569;28;20387;-74
2023/12/18 00:42:29;;;;;;;20.20;12.93;;;4.80;99.90;;;;;;5032297;28;20394;-74
2023/12/18 00:44:54;;;;;;;21.45;13.30;;;4.80;99.90;;;;;;5032692;28;20379;-73
2023/12/18 00:47:20;;;;;;;18.05;12.77;;;4.80;99.90;;;;;;5032228;28;20738;-73
2023/12/18 00:49:46;;;;;;;23.17;13.77;;;4.80;99.90;;;;;;5032015;28;20464;-75
2023/12/18 00:52:11;;;;;;;22.08;12.93;;;4.70;99.90;;;;;;5032336;28;20447;-74
2023/12/18 00:54:37;;;;;;;20.48;13.85;;;4.60;99.90;;;;;;5031930;28;20375;-75
2023/12/18 00:57:02;;;;;;;19.30;12.32;;;4.70;99.90;;;;;;5031934;28;20750;-73
2023/12/18 00:59:28;;;;;;;20.23;12.90;;;4.70;99.90;;;;;;5032312;28;20390;-73
2023/12/18 01:01:53;;;;;;;17.93;12.50;;;4.70;99.90;;;;;;5032365;28;20405;-74
2023/12/18 01:04:19;;;;;;;18.80;12.70;;;4.60;99.90;;;;;;5031684;28;20897;-74
2023/12/18 01:06:44;;;;;;;20.70;13.80;;;4.70;99.90;;;;;;5032018;28;20383;-76
2023/12/18 01:09:12;;;;;;;24.30;14.50;;;4.50;99.90;;;;;;5030216;28;20451;-74
2023/12/18 01:11:38;;;;;;;17.13;12.40;;;4.50;99.90;;;;;;5031671;28;20437;-74
2023/12/18 01:14:03;;;;;;;17.17;13.07;;;4.50;99.90;;;;;;5031300;28;20379;-74
2023/12/18 01:16:29;;;;;;;19.83;14.00;;;4.50;99.90;;;;;;5030187;28;20394;-73
2023/12/18 01:18:55;;;;;;;19.58;13.40;;;4.50;99.90;;;;;;5031712;28;20402;-73
2023/12/18 01:21:20;;;;;;;23.10;15.10;;;4.50;99.90;;;;;;5032065;28;20682;-74
2023/12/18 01:23:46;;;;;;;21.40;14.25;;;4.50;99.90;;;;;;5031501;28;20442;-75
2023/12/18 01:26:11;;;;;;;19.80;13.70;;;4.30;99.90;;;;;;5032473;28;20387;-74
2023/12/18 01:28:37;;;;;;;20.65;13.88;;;4.30;99.90;;;;;;5032589;28;20591;-74
2023/12/18 01:31:03;;;;;;;21.40;14.60;;;4.30;99.90;;;;;;5032406;28;20395;-74
2023/12/18 01:33:29;;;;;;;20.90;13.57;;;4.30;99.90;;;;;;5031608;28;20928;-75
2023/12/18 01:35:54;;;;;;;19.57;14.43;;;4.30;99.90;;;;;;5032278;28;20395;-74
2023/12/18 01:38:20;;;;;;;22.90;13.63;;;4.30;99.90;;;;;;5031960;28;20460;-74
2023/12/18 01:40:45;;;;;;;17.83;13.33;;;4.20;99.90;;;;;;5031682;28;20465;-74
2023/12/18 01:43:24;;;;;;;21.63;12.93;;;4.30;99.90;;;;;;5031885;28;20383;-74
2023/12/18 01:46:01;;;;;;;19.35;12.20;;;4.40;99.90;;;;;;5029878;28;20549;-74
2023/12/18 01:48:28;;;;;;;15.20;11.80;;;4.50;99.90;;;;;;5031135;28;20797;-74
2023/12/18 01:50:54;;;;;;;19.92;12.30;;;4.40;99.90;;;;;;5031546;28;20889;-75
2023/12/18 01:53:31;;;;;;;17.45;12.13;;;4.40;99.90;;;;;;5031512;28;20387;-74
2023/12/18 01:55:57;;;;;;;18.40;12.10;;;4.40;99.90;;;;;;5031658;28;20387;-74
2023/12/18 01:58:24;;;;;;;19.90;11.30;;;4.40;99.90;;;;;;5030926;28;20410;-74
2023/12/18 02:00:51;;;;;;;16.45;10.88;;;4.50;99.90;;;;;;5031541;28;20391;-73
2023/12/18 02:03:19;;;;;;;16.40;10.13;;;4.50;99.90;;;;;;5031338;28;20379;-74
2023/12/18 02:05:44;;;;;;;15.57;9.32;;;4.60;99.90;;;;;;5031574;28;20397;-74
2023/12/18 02:08:10;;;;;;;17.20;9.20;;;4.70;99.90;;;;;;5031870;28;20384;-74
2023/12/18 02:10:37;;;;;;;15.75;8.80;;;4.90;99.90;;;;;;5030602;28;20411;-74
2023/12/18 02:13:03;;;;;;;19.33;8.82;;;5.00;98.90;;;;;;5036760;28;20406;-74
2023/12/18 02:15:28;;;;;;;14.00;8.57;;;5.20;96.90;;;;;;5048063;28;20387;-74
2023/12/18 02:17:54;;;;;;;15.20;9.37;;;5.30;93.70;;;;;;5044175;28;20387;-74
2023/12/18 02:20:20;;;;;;;15.57;8.90;;;5.40;91.00;;;;;;5030976;28;20430;-74
2023/12/18 02:22:48;;;;;;;15.30;8.60;;;5.50;83.80;;;;;;5033435;28;20395;-73
2023/12/18 02:25:17;;;;;;;15.18;7.80;;;5.60;85.60;;;;;;5034273;28;20399;-74
2023/12/18 02:27:44;;;;;;;16.00;8.00;;;5.60;86.80;;;;;;5052186;22;20450;-71
2023/12/18 02:30:15;;;;;;;11.70;7.25;;;5.70;83.10;;;;;;5072829;28;20894;-71
2023/12/18 02:32:41;;;;;;;14.57;8.02;;;5.70;81.40;;;;;;5091032;28;20465;-71
2023/12/18 02:35:07;;;;;;;13.90;8.00;;;5.90;81.80;;;;;;5090864;28;20512;-71
2023/12/18 02:37:33;;;;;;;12.30;8.55;;;5.80;83.90;;;;;;5090822;28;20937;-71
2023/12/18 02:39:58;;;;;;;15.33;9.00;;;5.80;86.40;;;;;;5091032;28;20409;-72
2023/12/18 02:42:24;;;;;;;8.83;7.47;;;5.70;83.70;;;;;;5090888;28;20389;-72
2023/12/18 02:44:49;;;;;;;13.97;8.50;;;5.70;86.20;;;;;;5090686;28;20462;-72
2023/12/18 02:47:15;;;;;;;13.80;8.37;;;5.60;88.80;;;;;;5091366;28;20416;-72
2023/12/18 02:49:41;;;;;;;12.07;9.27;;;5.40;89.70;;;;;;5073200;28;20505;-71
2023/12/18 02:52:07;;;;;;;18.07;11.20;;;5.40;91.10;;;;;;5092298;28;20832;-71
2023/12/18 02:54:32;;;;;;;15.60;10.10;;;5.20;95.20;;;;;;5092287;28;20388;-71
2023/12/18 02:56:58;;;;;;;15.30;10.27;;;5.20;97.20;;;;;;5093563;28;20548;-72
2023/12/18 02:59:23;;;;;;;17.70;9.70;;;5.10;97.30;;;;;;5096601;28;20444;-71
2023/12/18 03:01:49;;;;;;;11.83;8.50;;;5.30;93.90;;;;;;5097268;28;20431;-71
2023/12/18 03:04:18;;;;;;;17.90;9.07;;;5.30;90.40;;;;;;5099764;28;20386;-72
2023/12/18 03:06:47;;;;;;;10.45;7.35;;;5.40;84.00;;;;;;5098676;28;20417;-71
2023/12/18 03:09:13;;;;;;;10.63;7.00;;;5.50;79.40;;;;;;5096445;28;20497;-71
2023/12/18 03:11:42;;;;;;;11.55;6.97;;;5.40;78.30;;;;;;5094338;28;20689;-71
2023/12/18 03:14:09;;;;;;;12.82;7.03;;;5.40;76.60;;;;;;5093433;28;20712;-71
2023/12/18 03:16:35;;;;;;;11.10;6.90;;;5.20;79.10;;;;;;5092948;28;20437;-71
2023/12/18 03:19:00;;;;;;;16.08;7.20;;;5.20;75.60;;;;;;5092409;28;20393;-71
2023/12/18 03:21:26;;;;;;;11.07;6.23;;;5.30;74.70;;;;;;5094657;28;20431;-71
2023/12/18 03:23:52;;;;;;;11.53;6.83;;;5.20;74.80;;;;;;5095374;28;20482;-72
2023/12/18 03:26:17;;;;;;;10.00;6.40;;;5.20;74.20;;;;;;5077679;28;20385;-71
2023/12/18 03:28:43;;;;;;;12.63;6.30;;;5.10;75.80;;;;;;5095793;28;20832;-72
2023/12/18 03:31:12;;;;;;;11.60;6.47;;;5.00;75.50;;;;;;5095082;28;20386;-71
2023/12/18 03:33:38;;;;;;;13.35;7.03;;;5.00;76.00;;;;;;5093037;28;20388;-71
2023/12/18 03:36:04;;;;;;;12.95;8.00;;;5.00;75.30;;;;;;5091790;28;20387;-72
2023/12/18 03:38:30;;;;;;;16.88;9.13;;;5.00;74.60;;;;;;5077083;28;20876;-72
2023/12/18 03:40:56;;;;;;;16.02;10.05;;;5.00;75.00;;;;;;5077055;28;20392;-71
2023/12/18 03:43:23;;;;;;;16.33;9.80;;;5.00;74.70;;;;;;5095056;28;20755;-72
2023/12/18 03:45:49;;;;;;;18.27;9.70;;;5.00;74.80;;;;;;5077569;28;20466;-71
2023/12/18 03:48:15;;;;;;;20.83;9.90;;;5.00;74.50;;;;;;5095915;28;20406;-72
2023/12/18 03:50:41;;;;;;;15.93;9.70;;;5.00;74.60;;;;;;5095963;28;20406;-72
2023/12/18 03:53:08;;;;;;;18.55;10.82;;;5.10;73.60;;;;;;5095802;28;20377;-72
2023/12/18 03:55:34;;;;;;;14.15;9.07;;;5.00;73.90;;;;;;5095907;28;20390;-71
2023/12/18 03:58:00;;;;;;;13.05;8.82;;;5.00;73.20;;;;;;5095515;28;20759;-71
2023/12/18 04:00:26;;;;;;;15.13;10.10;;;4.90;74.90;;;;;;5096937;28;20378;-72
2023/12/18 04:02:51;;;;;;;15.55;9.40;;;4.80;77.00;;;;;;5094298;28;20382;-71
2023/12/18 04:05:17;;;;;;;17.37;10.07;;;4.90;75.70;;;;;;5093799;28;20401;-73
2023/12/18 04:07:42;;;;;;;15.50;9.80;;;4.90;75.50;;;;;;5093044;28;20466;-72
2023/12/18 04:10:08;;;;;;;17.20;9.90;;;4.80;77.00;;;;;;5092870;28;20402;-72
2023/12/18 04:12:34;;;;;;;19.23;10.73;;;4.90;76.00;;;;;;5092975;28;20508;-72
2023/12/18 04:14:59;;;;;;;18.37;10.60;;;4.70;79.10;;;;;;5092808;28;20706;-72
2023/12/18 04:17:25;;;;;;;20.63;10.30;;;4.70;81.60;;;;;;5092838;28;20748;-71
2023/12/18 04:19:50;;;;;;;20.75;11.32;;;4.60;82.50;;;;;;5092677;28;20388;-71
2023/12/18 04:22:16;;;;;;;16.65;10.82;;;4.60;84.00;;;;;;5092796;28;20375;-72
2023/12/18 04:24:42;;;;;;;15.47;9.67;;;4.50;84.70;;;;;;5093060;28;20470;-71
2023/12/18 04:27:08;;;;;;;16.00;10.68;;;4.50;84.50;;;;;;5093186;28;20382;-71
2023/12/18 04:29:33;;;;;;;18.07;10.10;;;4.40;85.70;;;;;;5092165;28;20409;-72
2023/12/18 04:31:59;;;;;;;14.80;9.50;;;4.40;85.40;;;;;;5092887;28;20378;-71
2023/12/18 04:34:24;;;;;;;15.23;10.07;;;4.50;85.50;;;;;;5092335;28;20389;-71
2023/12/18 04:36:50;;;;;;;18.53;10.80;;;4.30;86.00;;;;;;5092759;28;20385;-71
2023/12/18 04:39:16;;;;;;;18.63;10.77;;;4.10;88.40;;;;;;5074250;28;20378;-71
2023/12/18 04:41:41;;;;;;;19.00;10.90;;;3.90;91.10;;;;;;5087812;28;20399;-72
2023/12/18 04:44:07;;;;;;;15.00;9.93;;;3.90;93.40;;;;;;5083669;28;20434;-71
2023/12/18 04:46:36;;;;;;;14.25;9.65;;;3.90;94.80;;;;;;5080587;28;20386;-72
2023/12/18 04:49:03;;;;;;;14.43;9.85;;;4.00;93.10;;;;;;5085366;28;20434;-71
2023/12/18 04:51:29;;;;;;;17.17;10.40;;;3.90;94.40;;;;;;5083212;28;20398;-71
2023/12/18 04:53:55;;;;;;;14.80;10.00;;;3.70;95.80;;;;;;5072050;28;20421;-71
2023/12/18 04:56:21;;;;;;;14.80;10.18;;;3.70;96.80;;;;;;5083988;28;20424;-71
2023/12/18 04:58:47;;;;;;;15.90;10.50;;;3.70;97.10;;;;;;5092248;28;20418;-72
2023/12/18 05:01:12;;;;;;;16.13;10.73;;;3.60;99.60;;;;;;5074205;28;20447;-73
2023/12/18 05:03:38;;;;;;;18.00;12.53;;;3.80;99.90;;;;;;5091526;28;20911;-72
2023/12/18 05:06:03;;;;;;;16.67;11.13;;;3.80;99.90;;;;;;5074431;28;20530;-72
2023/12/18 05:08:29;;;;;;;18.70;11.93;;;3.90;99.90;;;;;;5091335;28;20394;-72
2023/12/18 05:10:55;;;;;;;19.33;11.90;;;3.80;99.90;;;;;;5091630;28;20717;-72
2023/12/18 05:13:21;;;;;;;19.48;11.02;;;3.80;99.90;;;;;;5090246;28;20440;-71
2023/12/18 05:15:47;;;;;;;19.03;12.10;;;3.80;99.90;;;;;;5081250;28;20391;-71
2023/12/18 05:18:12;;;;;;;23.63;14.52;;;3.70;99.90;;;;;;5037659;28;20383;-72
2023/12/18 05:20:38;;;;;;;18.42;13.15;;;3.70;99.90;;;;;;5071996;28;20387;-71
2023/12/18 05:23:04;;;;;;;19.43;12.30;;;3.80;99.90;;;;;;5071230;28;20491;-72
2023/12/18 05:25:29;;;;;;;18.17;11.70;;;3.80;99.90;;;;;;5071071;28;20469;-72
2023/12/18 05:27:55;;;;;;;23.10;12.43;;;4.10;99.90;;;;;;5070565;28;20414;-71
2023/12/18 05:30:21;;;;;;;20.13;11.23;;;4.10;99.90;;;;;;5071135;28;20403;-72
2023/12/18 05:32:47;;;;;;;19.00;11.00;;;4.10;99.90;;;;;;5070974;28;20750;-74
2023/12/18 05:35:12;;;;;;;20.08;13.15;;;4.00;97.70;;;;;;5071217;28;20405;-72
2023/12/18 05:37:38;;;;;;;20.37;12.00;;;3.90;99.00;;;;;;5070843;28;20938;-71
2023/12/18 05:40:04;;;;;;;17.07;11.50;;;4.00;99.90;;;;;;5070815;28;20375;-71
2023/12/18 05:42:29;;;;;;;17.67;12.02;;;3.90;99.90;;;;;;5070612;28;20428;-72
2023/12/18 05:44:55;;;;;;;18.52;11.80;;;4.10;99.90;;;;;;5070733;28;20793;-71
2023/12/18 05:47:21;;;;;;;18.88;11.70;;;4.10;99.60;;;;;;5070868;28;20379;-72
2023/12/18 05:49:46;;;;;;;18.75;12.48;;;4.00;99.90;;;;;;5070840;28;20400;-72
2023/12/18 05:52:12;;;;;;;20.67;12.00;;;4.30;99.90;;;;;;5071467;28;20424;-72
2023/12/18 05:54:38;;;;;;;17.92;11.48;;;4.50;93.50;;;;;;5053219;28;20384;-73
2023/12/18 05:57:04;;;;;;;21.17;12.27;;;4.50;94.80;;;;;;5071636;28;20387;-73
2023/12/18 05:59:29;;;;;;;19.73;12.00;;;4.30;93.10;;;;;;5070491;28;20924;-71
2023/12/18 06:01:55;;;;;;;16.38;11.02;;;4.30;94.10;;;;;;5071202;28;20866;-73
2023/12/18 06:04:21;;;;;;;19.98;12.25;;;4.40;91.50;;;;;;5070700;28;20890;-72
2023/12/18 06:06:47;;;;;;;19.58;11.80;;;4.50;91.40;;;;;;5071189;28;20419;-72
2023/12/18 06:09:12;;;;;;;21.87;13.50;;;4.50;92.50;;;;;;5070590;28;20396;-72
2023/12/18 06:11:38;;;;;;;19.67;10.73;;;4.70;92.50;;;;;;5071035;28;20505;-72
2023/12/18 06:14:03;;;;;;;17.47;11.00;;;4.80;84.90;;;;;;5070933;28;20772;-72
2023/12/18 06:16:29;;;;;;;20.10;12.60;;;4.70;86.00;;;;;;5071712;28;20902;-75
2023/12/18 06:18:54;;;;;;;22.38;11.55;;;4.70;87.60;;;;;;5071434;28;20398;-72
2023/12/18 06:21:20;;;;;;;19.77;12.23;;;4.90;86.00;;;;;;5070777;28;20410;-73
2023/12/18 06:23:46;;;;;;;18.92;12.50;;;4.80;86.30;;;;;;5070924;28;20459;-72
2023/12/18 06:26:12;;;;;;;23.27;12.45;;;4.70;87.20;;;;;;5070672;28;20880;-72
2023/12/18 06:28:37;;;;;;;19.48;11.48;;;4.80;88.00;;;;;;5072585;28;20399;-73
2023/12/18 06:31:03;;;;;;;20.57;12.13;;;4.90;82.60;;;;;;5070880;28;20441;-72
2023/12/18 06:33:28;;;;;;;23.48;14.20;;;5.10;82.70;;;;;;5070566;28;20383;-71
2023/12/18 06:35:54;;;;;;;23.50;14.02;;;5.20;79.50;;;;;;5070705;28;20724;-71
2023/12/18 06:38:20;;;;;;;22.60;13.80;;;5.50;74.80;;;;;;5071485;28;20422;-73
2023/12/18 06:40:46;;;;;;;20.63;13.70;;;5.60;70.20;;;;;;5070675;28;20392;-71
2023/12/18 06:43:11;;;;;;;22.23;13.67;;;5.70;69.60;;;;;;5070871;28;20754;-72
2023/12/18 06:45:37;;;;;;;23.73;15.60;;;5.80;68.80;;;;;;5070466;28;20399;-72
2023/12/18 06:48:03;;;;;;;20.67;14.87;;;5.70;66.90;;;;;;5052653;28;20399;-71
2023/12/18 06:50:29;;;;;;;27.20;16.03;;;5.80;62.50;;;;;;5070123;28;20403;-71
2023/12/18 06:52:55;;;;;;;25.95;17.70;;;5.70;65.60;;;;;;5070271;28;20384;-72
2023/12/18 06:55:21;;;;;;;30.15;19.05;;;5.70;67.40;;;;;;5071142;28;20383;-72
2023/12/18 06:57:46;;;;;;;29.85;19.25;;;5.50;69.30;;;;;;5071677;28;20384;-72
2023/12/18 07:00:13;;;;;;;31.30;20.73;;;5.50;69.80;;;;;;5070812;28;20386;-71
2023/12/18 07:02:38;;;;;;;35.45;21.60;;;5.50;70.70;;;;;;5072450;28;20375;-72
2023/12/18 07:05:04;;;;;;;36.78;23.20;;;5.50;70.40;;;;;;5054395;28;20411;-72
2023/12/18 07:07:30;;;;;;;34.10;21.60;;;5.40;72.30;;;;;;5071320;28;20773;-73
2023/12/18 07:09:55;;;;;;;37.15;22.98;;;5.50;70.60;;;;;;5071163;28;20396;-70
2023/12/18 07:12:21;;;;;;;33.75;21.98;;;5.60;70.70;;;;;;5073106;28;20758;-72
2023/12/18 07:14:47;;;;;;;34.72;21.95;;;5.50;71.50;;;;;;5074657;28;20375;-72
2023/12/18 07:17:12;;;;;;;37.40;24.10;;;5.50;72.00;;;;;;5074741;28;20506;-73
2023/12/18 07:19:39;;;;;;;39.90;23.48;;;5.40;72.20;;;;;;5074553;28;20391;-72
2023/12/18 07:22:05;;;;;;;33.43;21.73;;;5.40;72.80;;;;;;5074369;28;20387;-72
2023/12/18 07:24:32;;;;;;;31.83;21.63;;;5.40;72.80;;;;;;5074975;28;20391;-72
2023/12/18 07:26:58;;;;;;;38.47;21.95;;;5.40;73.80;;;;;;5074546;28;20390;-72
2023/12/18 07:29:23;;;;;;;37.87;21.43;;;5.40;74.60;;;;;;5072956;28;20405;-71
2023/12/18 07:31:49;;;;;;;35.07;22.00;;;5.40;74.50;;;;;;5073720;28;20567;-72
2023/12/18 07:34:14;;;;;;;31.67;21.70;;;5.40;75.50;;;;;;5055756;28;20416;-72
2023/12/18 07:36:40;;;;;;;34.23;21.27;;;5.50;75.00;;;;;;5074009;28;20513;-72
2023/12/18 07:39:07;;;;;;;30.95;20.63;;;5.70;71.20;;;;;;5074012;28;20391;-72
2023/12/18 07:41:33;;;;;;;32.30;22.05;;;5.60;72.20;;;;;;5073165;28;20886;-72
2023/12/18 07:43:58;;;;;;;35.00;21.25;;;5.70;70.80;;;;;;5073193;28;20384;-72
2023/12/18 07:46:24;;;;;;;32.30;22.08;;;5.80;70.00;;;;;;5072829;28;20411;-72
2023/12/18 07:48:50;;;;;;;36.08;23.10;;;5.80;69.30;;;;;;5054810;28;20488;-74
2023/12/18 07:51:16;;;;;;;40.33;25.20;;;5.70;70.00;;;;;;5073251;28;20380;-72
2023/12/18 07:53:42;;;;;;;37.72;24.10;;;5.70;70.60;;;;;;5072835;28;20379;-71
2023/12/18 07:56:07;;;;;;;35.77;23.90;;;5.70;72.00;;;;;;5073091;28;20378;-72
2023/12/18 07:58:33;;;;;;;39.33;24.90;;;5.70;70.50;;;;;;5072744;28;20892;-72
2023/12/18 08:00:58;;;;;;;38.07;23.87;;;5.80;69.90;;;;;;5072846;28;20846;-72
2023/12/18 08:03:24;;;;;;;41.83;23.60;;;5.70;69.10;;;;;;5072471;28;20382;-71
2023/12/18 08:05:49;;;;;;;33.40;23.10;;;5.80;69.60;;;;;;5073258;28;20395;-72
2023/12/18 08:08:15;;;;;;;34.93;22.70;;;5.70;70.60;;;;;;5072234;28;20380;-72
2023/12/18 08:10:42;;;;;;;37.40;22.83;;;5.80;70.10;;;;;;5073183;28;20498;-72
2023/12/18 08:13:08;;;;;;;33.50;21.35;;;5.90;69.50;;;;;;5073072;28;20380;-72
2023/12/18 08:15:34;;;;;;;38.47;21.93;;;5.90;67.40;;;;;;5055105;28;20384;-73
2023/12/18 08:17:59;;;;;;;36.03;23.07;;;6.00;67.60;;;;;;5073478;28;20379;-72
2023/12/18 08:20:25;;;;;;;29.90;20.57;;;6.00;67.60;;;;;;5074692;28;20940;-72
2023/12/18 08:22:50;;;;;;;33.97;21.90;;;6.00;68.30;;;;;;5074440;28;20773;-71
2023/12/18 08:25:16;;;;;;;33.13;21.90;;;6.00;66.70;;;;;;5074883;28;20426;-71
2023/12/18 08:27:41;;;;;;;37.87;22.23;;;6.00;67.90;;;;;;5073348;28;20391;-72
2023/12/18 08:30:10;;;;;;;35.03;21.97;;;6.20;66.90;;;;;;5124013;22;20534;-76
2023/12/18 08:32:38;;;;;;;34.70;22.88;;;6.20;67.20;;;;;;5116027;28;20383;-75
2023/12/18 08:35:05;;;;;;;31.42;20.95;;;6.10;67.50;;;;;;5117295;28;20427;-75
2023/12/18 08:37:30;;;;;;;33.63;20.92;;;6.10;69.30;;;;;;5116011;28;20456;-75
2023/12/18 08:39:56;;;;;;;31.13;19.87;;;6.20;68.30;;;;;;5116967;28;20461;-75
2023/12/18 08:42:22;;;;;;;32.10;20.13;;;6.20;68.70;;;;;;5117161;28;20453;-76
2023/12/18 08:44:48;;;;;;;29.55;19.27;;;6.40;67.50;;;;;;5117846;28;20376;-74
2023/12/18 08:47:13;;;;;;;32.08;19.80;;;6.30;67.80;;;;;;5118307;28;20419;-74
2023/12/18 08:49:39;;;;;;;29.00;19.27;;;6.30;67.10;;;;;;5119033;28;20400;-73
2023/12/18 08:52:05;;;;;;;30.40;19.53;;;6.30;65.10;;;;;;5124400;28;20415;-73
2023/12/18 08:54:30;;;;;;;29.87;19.33;;;6.30;65.40;;;;;;5109740;28;20424;-74
2023/12/18 08:56:56;;;;;;;31.20;19.73;;;6.30;66.50;;;;;;5123045;28;20534;-75
2023/12/18 08:59:21;;;;;;;32.20;19.10;;;6.40;65.60;;;;;;5113985;28;20384;-75
2023/12/18 09:01:47;;;;;;;30.63;19.50;;;6.50;65.10;;;;;;5115225;28;20420;-74
2023/12/18 09:04:13;;;;;;;31.20;19.23;;;6.40;66.20;;;;;;5115186;28;20376;-75
2023/12/18 09:06:39;;;;;;;30.07;20.00;;;6.40;67.10;;;;;;5115297;28;20384;-75
2023/12/18 09:09:05;;;;;;;26.75;18.27;;;6.50;65.00;;;;;;5115725;28;20728;-75
2023/12/18 09:11:33;;;;;;;28.63;17.60;;;6.40;66.00;;;;;;5114677;28;20388;-76
2023/12/18 09:14:00;;;;;;;27.15;17.73;;;6.50;65.60;;;;;;5114641;28;20719;-76
2023/12/18 09:16:26;;;;;;;28.20;16.20;;;6.50;66.60;;;;;;5095153;28;20494;-74
2023/12/18 09:18:52;;;;;;;24.92;16.50;;;6.70;64.00;;;;;;5112609;28;20383;-74
2023/12/18 09:21:17;;;;;;;26.60;16.80;;;6.60;63.70;;;;;;5112896;28;20368;-76
2023/12/18 09:23:44;;;;;;;31.70;17.42;;;6.70;63.00;;;;;;5113393;28;20412;-75
2023/12/18 09:26:12;;;;;;;30.23;18.42;;;6.50;65.70;;;;;;5112924;28;20391;-74
2023/12/18 09:28:38;;;;;;;39.05;18.60;;;6.30;67.60;;;;;;5112801;28;20913;-74
2023/12/18 09:31:05;;;;;;;29.95;18.30;;;6.10;69.00;;;;;;5112833;28;20380;-75
2023/12/18 09:33:31;;;;;;;30.80;18.65;;;6.30;66.70;;;;;;5094813;28;20522;-75
2023/12/18 09:35:57;;;;;;;27.73;17.50;;;6.60;62.80;;;;;;5113198;28;20372;-73
2023/12/18 09:38:23;;;;;;;31.07;19.70;;;6.60;63.60;;;;;;5114101;28;20380;-76
2023/12/18 09:40:48;;;;;;;29.30;18.70;;;6.30;65.50;;;;;;5115591;28;20372;-75
2023/12/18 09:43:23;;;;;;;30.37;17.40;;;6.20;67.90;;;;;;5114499;28;20388;-76
2023/12/18 09:45:49;;;;;;;33.07;19.00;;;6.70;62.90;;;;;;5116277;28;20399;-75
2023/12/18 09:48:18;;;;;;;29.47;18.20;;;6.50;63.40;;;;;;5114392;28;20384;-75
2023/12/18 09:50:44;;;;;;;31.25;17.02;;;6.70;65.00;;;;;;5097151;28;21105;-76
2023/12/18 09:53:16;;;;;;;29.67;16.83;;;6.80;63.00;;;;;;5114762;28;20379;-76
2023/12/18 09:55:42;;;;;;;27.20;17.70;;;6.90;60.90;;;;;;5114194;28;20413;-75
2023/12/18 09:58:08;;;;;;;26.53;17.67;;;6.80;60.70;;;;;;5113728;28;20804;-75
2023/12/18 10:00:34;;;;;;;27.17;17.42;;;6.70;61.50;;;;;;5113073;28;20376;-74
2023/12/18 10:03:00;;;;;;;30.20;18.33;;;6.80;60.50;;;;;;5112668;28;20387;-76
2023/12/18 10:05:26;;;;;;;27.33;17.55;;;6.60;64.40;;;;;;5112143;28;20454;-75
2023/12/18 10:07:58;;;;;;;27.58;17.50;;;7.10;60.40;;;;;;5112384;28;20376;-75
2023/12/18 10:10:24;;;;;;;31.38;17.75;;;7.10;59.10;;;;;;5111613;28;20431;-76
2023/12/18 10:12:49;;;;;;;28.67;17.00;;;7.30;57.40;;;;;;5114095;28;20889;-74
2023/12/18 10:15:15;;;;;;;31.70;17.13;;;7.60;56.30;;;;;;5113431;28;20456;-75
2023/12/18 10:17:44;;;;;;;34.90;17.50;;;7.60;55.00;;;;;;5113484;28;20461;-75
2023/12/18 10:20:12;;;;;;;27.80;15.50;;;7.60;55.80;;;;;;5114798;28;20462;-75
2023/12/18 10:22:40;;;;;;;26.75;16.00;;;7.70;55.10;;;;;;5115396;28;20380;-76
2023/12/18 10:25:08;;;;;;;29.88;16.27;;;7.20;57.70;;;;;;5117471;28;20401;-76
2023/12/18 10:27:33;;;;;;;30.17;17.10;;;7.00;59.30;;;;;;5115685;28;20399;-75
2023/12/18 10:30:00;;;;;;;27.73;15.50;;;7.00;60.60;;;;;;5112439;28;20408;-76
2023/12/18 10:32:29;;;;;;;28.13;15.95;;;7.10;59.80;;;;;;5113866;28;20422;-74
2023/12/18 10:34:55;;;;;;;27.83;16.40;;;7.20;59.20;;;;;;5114301;28;20743;-75
2023/12/18 10:37:25;;;;;;;28.80;16.80;;;7.00;60.40;;;;;;5112689;28;20380;-73
2023/12/18 10:39:53;;;;;;;28.95;16.70;;;6.80;61.60;;;;;;5112502;28;20392;-75
2023/12/18 10:42:39;;;;;;;27.95;17.40;;;7.10;61.50;;;;;;5112122;28;20459;-74
2023/12/18 10:45:08;;;;;;;28.92;17.33;;;6.90;62.10;;;;;;5110820;28;20380;-75
2023/12/18 10:47:35;;;;;;;29.27;17.40;;;6.70;65.20;;;;;;5114732;28;20384;-76
2023/12/18 10:50:02;;;;;;;31.40;17.40;;;6.80;64.20;;;;;;5096904;28;20762;-75
2023/12/18 10:52:31;;;;;;;38.90;20.65;;;6.90;62.10;;;;;;5115643;28;20376;-76
2023/12/18 10:55:03;;;;;;;32.05;17.73;;;6.80;62.10;;;;;;5115316;28;20960;-75
2023/12/18 10:57:31;;;;;;;28.35;16.40;;;6.80;64.00;;;;;;5115069;28;20381;-75
2023/12/18 10:59:58;;;;;;;25.40;16.33;;;6.80;64.30;;;;;;5115636;28;20808;-74
2023/12/18 11:02:25;;;;;;;25.45;15.40;;;6.80;65.00;;;;;;5115760;28;20416;-76
2023/12/18 11:04:52;;;;;;;26.05;15.43;;;7.10;62.50;;;;;;5096969;28;20384;-75
2023/12/18 11:07:19;;;;;;;25.42;16.02;;;7.00;63.50;;;;;;5097282;28;20376;-74
2023/12/18 11:09:45;;;;;;;29.50;15.25;;;6.70;66.70;;;;;;5115290;28;20407;-75
2023/12/18 11:12:13;;;;;;;30.35;15.20;;;7.00;65.70;;;;;;5114841;28;20383;-76
2023/12/18 11:14:47;;;;;;;28.15;14.20;;;7.10;64.80;;;;;;5096249;28;20489;-74
2023/12/18 11:17:29;;;;;;;26.98;15.38;;;7.10;65.80;;;;;;5115298;28;20364;-74
2023/12/18 11:20:26;;;;;;;26.67;14.43;;;7.00;67.50;;;;;;5116524;28;20706;-75
2023/12/18 11:22:57;;;;;;;27.30;15.00;;;7.00;67.50;;;;;;5116674;28;20472;-76
2023/12/18 11:25:30;;;;;;;27.15;15.63;;;6.80;69.70;;;;;;5116731;28;20416;-75
2023/12/18 11:27:59;;;;;;;23.40;14.60;;;6.90;69.50;;;;;;5096558;28;20380;-74
2023/12/18 11:30:37;;;;;;;22.40;13.93;;;7.00;71.40;;;;;;5114653;28;20407;-75
2023/12/18 11:33:07;;;;;;;23.40;13.15;;;7.20;67.30;;;;;;5114989;28;20387;-76
2023/12/18 11:35:35;;;;;;;22.15;12.85;;;7.30;66.60;;;;;;5097000;28;20389;-76
2023/12/18 11:38:10;;;;;;;22.27;12.60;;;7.10;68.30;;;;;;5115056;28;20380;-75
2023/12/18 11:40:50;;;;;;;18.92;12.68;;;7.10;69.20;;;;;;5114855;28;20417;-74
2023/12/18 11:43:38;;;;;;;22.00;12.95;;;7.10;70.60;;;;;;5114989;28;20392;-75
2023/12/18 11:46:08;;;;;;;26.10;12.50;;;6.90;71.00;;;;;;5096380;28;20379;-76
2023/12/18 11:48:34;;;;;;;32.13;13.57;;;7.10;70.40;;;;;;5115118;28;20388;-74
2023/12/18 11:51:04;;;;;;;20.23;12.27;;;7.10;70.60;;;;;;5123238;28;20465;-76
2023/12/18 11:53:35;;;;;;;19.87;12.87;;;7.30;67.90;;;;;;5126966;28;20421;-74
2023/12/18 11:56:11;;;;;;;19.25;11.38;;;7.40;68.50;;;;;;5120327;28;20368;-75
2023/12/18 11:58:40;;;;;;;18.73;11.15;;;7.20;69.60;;;;;;5112560;28;20368;-75
2023/12/18 12:01:07;;;;;;;18.17;11.35;;;7.30;67.90;;;;;;5113686;28;20372;-73
2023/12/18 12:03:33;;;;;;;16.40;11.38;;;7.40;67.60;;;;;;5113917;28;20839;-74
2023/12/18 12:06:00;;;;;;;19.30;10.30;;;7.50;67.30;;;;;;5114079;28;20396;-75
2023/12/18 12:08:26;;;;;;;18.33;10.80;;;7.70;65.30;;;;;;5113928;28;20391;-75
2023/12/18 12:10:51;;;;;;;18.03;10.30;;;7.70;64.80;;;;;;5113892;28;20915;-74
2023/12/18 12:13:18;;;;;;;15.93;10.17;;;7.60;66.50;;;;;;5114488;28;20483;-74
2023/12/18 12:15:57;;;;;;;21.27;10.73;;;7.40;67.40;;;;;;5114973;28;20392;-74
2023/12/18 12:18:27;;;;;;;16.60;9.38;;;7.50;66.00;;;;;;5113364;28;20459;-74
2023/12/18 12:20:53;;;;;;;15.63;9.37;;;7.50;65.10;;;;;;5113477;28;20407;-75
2023/12/18 12:23:19;;;;;;;13.82;8.63;;;7.60;64.90;;;;;;5114377;28;20384;-73
2023/12/18 12:25:48;;;;;;;21.25;9.30;;;7.50;65.80;;;;;;5113276;28;20412;-74
2023/12/18 12:28:15;;;;;;;15.40;9.50;;;7.50;66.00;;;;;;5113449;28;20420;-74
2023/12/18 12:30:42;;;;;;;15.20;9.43;;;7.40;68.10;;;;;;5113562;28;20419;-74
2023/12/18 12:33:07;;;;;;;17.80;9.48;;;7.40;68.00;;;;;;5113683;28;20377;-74
2023/12/18 12:35:33;;;;;;;18.92;10.10;;;7.50;67.10;;;;;;5113187;28;20441;-75